sensor_id;sensor_type;location;lat;lon;timestamp;P1;durP1;ratioP1;P2;durP2;ratioP2
79375;SDS011;68846;53.150;18.136;2023-07-31T18:38:12;6.20;;;3.20;;
79375;SDS011;68846;53.150;18.136;2023-07-31T18:40:40;6.80;;;3.00;;
79375;SDS011;68846;53.150;18.136;2023-07-31T18:43:08;5.60;;;2.50;;
79375;SDS011;68846;53.150;18.136;2023-07-31T18:45:36;5.80;;;2.90;;
79375;SDS011;68846;53.150;18.136;2023-07-31T18:48:04;5.40;;;2.60;;
79375;SDS011;68846;53.150;18.136;2023-07-31T18:50:32;4.30;;;2.80;;
79375;SDS011;68846;53.150;18.136;2023-07-31T18:53:00;8.40;;;3.50;;
79375;SDS011;68846;53.150;18.136;2023-07-31T18:55:28;5.60;;;3.40;;
79375;SDS011;68846;53.150;18.136;2023-07-31T18:57:56;5.20;;;3.20;;
79375;SDS011;68846;53.150;18.136;2023-07-31T19:00:24;5.80;;;3.20;;
79375;SDS011;68846;53.150;18.136;2023-07-31T19:02:52;7.40;;;3.40;;
79375;SDS011;68846;53.150;18.136;2023-07-31T19:05:21;5.30;;;3.00;;
79375;SDS011;68846;53.150;18.136;2023-07-31T19:07:50;7.80;;;3.00;;
79375;SDS011;68846;53.150;18.136;2023-07-31T19:10:18;4.80;;;2.90;;
79375;SDS011;68846;53.150;18.136;2023-07-31T19:12:46;6.00;;;2.60;;
79375;SDS011;68846;53.150;18.136;2023-07-31T19:15:14;4.30;;;2.70;;
79375;SDS011;68846;53.150;18.136;2023-07-31T19:17:42;4.90;;;3.00;;
79375;SDS011;68846;53.150;18.136;2023-07-31T19:20:13;7.10;;;3.10;;
79375;SDS011;68846;53.150;18.136;2023-07-31T19:22:42;5.00;;;3.20;;
79375;SDS011;68846;53.150;18.136;2023-07-31T19:25:10;4.90;;;2.90;;
79375;SDS011;68846;53.150;18.136;2023-07-31T19:27:38;6.00;;;3.30;;
79375;SDS011;68846;53.150;18.136;2023-07-31T19:30:06;8.30;;;3.60;;
79375;SDS011;68846;53.150;18.136;2023-07-31T19:32:35;6.80;;;3.10;;
79375;SDS011;68846;53.150;18.136;2023-07-31T19:35:03;8.60;;;3.30;;
79375;SDS011;68846;53.150;18.136;2023-07-31T19:37:31;6.80;;;3.30;;
79375;SDS011;68846;53.150;18.136;2023-07-31T19:40:00;8.20;;;3.50;;
79375;SDS011;68846;53.150;18.136;2023-07-31T19:42:28;7.70;;;3.10;;
79375;SDS011;68846;53.150;18.136;2023-07-31T19:44:56;6.60;;;3.30;;
79375;SDS011;68846;53.150;18.136;2023-07-31T19:47:24;5.90;;;3.40;;
79375;SDS011;68846;53.150;18.136;2023-07-31T19:49:52;6.30;;;3.00;;
79375;SDS011;68846;53.150;18.136;2023-07-31T19:52:20;9.30;;;3.40;;
79375;SDS011;68846;53.150;18.136;2023-07-31T19:54:48;7.50;;;3.40;;
79375;SDS011;68846;53.150;18.136;2023-07-31T19:57:16;7.00;;;3.30;;
79375;SDS011;68846;53.150;18.136;2023-07-31T19:59:44;6.40;;;3.50;;
79375;SDS011;68846;53.150;18.136;2023-07-31T20:02:12;6.10;;;3.20;;
79375;SDS011;68846;53.150;18.136;2023-07-31T20:04:41;6.80;;;3.10;;
79375;SDS011;68846;53.150;18.136;2023-07-31T20:07:09;5.60;;;3.20;;
79375;SDS011;68846;53.150;18.136;2023-07-31T20:09:37;6.70;;;3.80;;
79375;SDS011;68846;53.150;18.136;2023-07-31T20:12:07;6.50;;;3.40;;
79375;SDS011;68846;53.150;18.136;2023-07-31T20:14:36;5.10;;;2.80;;
79375;SDS011;68846;53.150;18.136;2023-07-31T20:17:04;6.30;;;3.30;;
79375;SDS011;68846;53.150;18.136;2023-07-31T20:19:32;6.80;;;3.20;;
79375;SDS011;68846;53.150;18.136;2023-07-31T20:22:00;7.80;;;3.40;;
79375;SDS011;68846;53.150;18.136;2023-07-31T20:24:28;6.80;;;3.50;;
79375;SDS011;68846;53.150;18.136;2023-07-31T20:26:56;8.70;;;3.60;;
79375;SDS011;68846;53.150;18.136;2023-07-31T20:29:24;11.90;;;3.60;;
79375;SDS011;68846;53.150;18.136;2023-07-31T20:31:52;4.30;;;3.10;;
79375;SDS011;68846;53.150;18.136;2023-07-31T20:34:20;4.60;;;2.90;;
79375;SDS011;68846;53.150;18.136;2023-07-31T20:36:48;5.90;;;2.90;;
79375;SDS011;68846;53.150;18.136;2023-07-31T20:39:15;5.60;;;2.80;;
79375;SDS011;68846;53.150;18.136;2023-07-31T20:41:44;8.60;;;2.80;;
79375;SDS011;68846;53.150;18.136;2023-07-31T20:44:12;7.10;;;3.30;;
79375;SDS011;68846;53.150;18.136;2023-07-31T20:46:41;6.10;;;2.70;;
79375;SDS011;68846;53.150;18.136;2023-07-31T20:49:09;7.70;;;3.10;;
79375;SDS011;68846;53.150;18.136;2023-07-31T20:51:37;6.70;;;3.10;;
79375;SDS011;68846;53.150;18.136;2023-07-31T20:54:07;5.30;;;3.00;;
79375;SDS011;68846;53.150;18.136;2023-07-31T20:56:35;5.70;;;2.90;;
79375;SDS011;68846;53.150;18.136;2023-07-31T20:59:03;5.90;;;2.50;;
79375;SDS011;68846;53.150;18.136;2023-07-31T21:01:31;5.10;;;2.80;;
79375;SDS011;68846;53.150;18.136;2023-07-31T21:03:59;6.00;;;2.50;;
79375;SDS011;68846;53.150;18.136;2023-07-31T21:06:27;6.60;;;3.10;;
79375;SDS011;68846;53.150;18.136;2023-07-31T21:08:55;5.20;;;3.00;;
79375;SDS011;68846;53.150;18.136;2023-07-31T21:11:25;6.30;;;2.80;;
79375;SDS011;68846;53.150;18.136;2023-07-31T21:13:53;4.60;;;2.40;;
79375;SDS011;68846;53.150;18.136;2023-07-31T21:16:21;4.60;;;2.80;;
79375;SDS011;68846;53.150;18.136;2023-07-31T21:18:50;4.30;;;2.60;;
79375;SDS011;68846;53.150;18.136;2023-07-31T21:21:19;5.90;;;2.70;;
79375;SDS011;68846;53.150;18.136;2023-07-31T21:23:47;4.90;;;2.60;;
79375;SDS011;68846;53.150;18.136;2023-07-31T21:26:15;4.10;;;2.40;;
79375;SDS011;68846;53.150;18.136;2023-07-31T21:28:43;5.00;;;2.40;;
79375;SDS011;68846;53.150;18.136;2023-07-31T21:31:35;4.40;;;2.40;;
79375;SDS011;68846;53.150;18.136;2023-07-31T21:34:03;5.50;;;2.70;;
79375;SDS011;68846;53.150;18.136;2023-07-31T21:36:31;5.20;;;2.50;;
79375;SDS011;68846;53.150;18.136;2023-07-31T21:38:59;4.10;;;2.40;;
79375;SDS011;68846;53.150;18.136;2023-07-31T21:41:27;5.00;;;2.60;;
79375;SDS011;68846;53.150;18.136;2023-07-31T21:43:55;3.20;;;2.50;;
79375;SDS011;68846;53.150;18.136;2023-07-31T21:46:23;4.90;;;2.30;;
79375;SDS011;68846;53.150;18.136;2023-07-31T21:48:52;4.10;;;2.70;;
79375;SDS011;68846;53.150;18.136;2023-07-31T21:51:20;4.00;;;2.80;;
79375;SDS011;68846;53.150;18.136;2023-07-31T21:53:47;5.10;;;2.50;;
79375;SDS011;68846;53.150;18.136;2023-07-31T21:56:15;4.90;;;2.40;;
79375;SDS011;68846;53.150;18.136;2023-07-31T21:58:43;4.30;;;2.80;;
79375;SDS011;68846;53.150;18.136;2023-07-31T22:01:11;4.10;;;2.70;;
79375;SDS011;68846;53.150;18.136;2023-07-31T22:03:39;6.80;;;2.70;;
79375;SDS011;68846;53.150;18.136;2023-07-31T22:06:07;5.30;;;2.80;;
79375;SDS011;68846;53.150;18.136;2023-07-31T22:08:37;4.40;;;2.30;;
79375;SDS011;68846;53.150;18.136;2023-07-31T22:11:05;5.80;;;2.80;;
79375;SDS011;68846;53.150;18.136;2023-07-31T22:13:33;5.70;;;2.80;;
79375;SDS011;68846;53.150;18.136;2023-07-31T22:16:01;4.10;;;2.90;;
79375;SDS011;68846;53.150;18.136;2023-07-31T22:18:30;3.90;;;2.40;;
79375;SDS011;68846;53.150;18.136;2023-07-31T22:20:58;4.30;;;2.60;;
79375;SDS011;68846;53.150;18.136;2023-07-31T22:23:26;3.80;;;2.40;;
79375;SDS011;68846;53.150;18.136;2023-07-31T22:25:54;4.50;;;3.00;;
79375;SDS011;68846;53.150;18.136;2023-07-31T22:28:22;4.90;;;2.70;;
79375;SDS011;68846;53.150;18.136;2023-07-31T22:30:50;5.70;;;2.10;;
79375;SDS011;68846;53.150;18.136;2023-07-31T22:33:18;5.70;;;2.40;;
79375;SDS011;68846;53.150;18.136;2023-07-31T22:35:48;4.60;;;2.30;;
79375;SDS011;68846;53.150;18.136;2023-07-31T22:38:19;5.40;;;3.00;;
79375;SDS011;68846;53.150;18.136;2023-07-31T22:40:47;3.80;;;2.30;;
79375;SDS011;68846;53.150;18.136;2023-07-31T22:43:15;5.40;;;3.10;;
79375;SDS011;68846;53.150;18.136;2023-07-31T22:45:46;4.60;;;2.60;;
79375;SDS011;68846;53.150;18.136;2023-07-31T22:48:39;7.70;;;2.70;;
79375;SDS011;68846;53.150;18.136;2023-07-31T22:51:07;3.90;;;2.20;;
79375;SDS011;68846;53.150;18.136;2023-07-31T22:53:37;4.90;;;2.80;;
79375;SDS011;68846;53.150;18.136;2023-07-31T22:56:06;7.00;;;3.00;;
79375;SDS011;68846;53.150;18.136;2023-07-31T22:58:34;3.60;;;2.60;;
79375;SDS011;68846;53.150;18.136;2023-07-31T23:01:03;3.50;;;2.60;;
79375;SDS011;68846;53.150;18.136;2023-07-31T23:03:32;7.40;;;3.00;;
79375;SDS011;68846;53.150;18.136;2023-07-31T23:06:01;4.30;;;2.80;;
79375;SDS011;68846;53.150;18.136;2023-07-31T23:08:29;4.70;;;2.60;;
79375;SDS011;68846;53.150;18.136;2023-07-31T23:10:57;4.80;;;2.70;;
79375;SDS011;68846;53.150;18.136;2023-07-31T23:13:25;4.60;;;2.80;;
79375;SDS011;68846;53.150;18.136;2023-07-31T23:15:53;3.60;;;2.40;;
79375;SDS011;68846;53.150;18.136;2023-07-31T23:18:21;4.30;;;2.70;;
79375;SDS011;68846;53.150;18.136;2023-07-31T23:20:51;5.00;;;2.60;;
79375;SDS011;68846;53.150;18.136;2023-07-31T23:23:24;4.20;;;2.30;;
79375;SDS011;68846;53.150;18.136;2023-07-31T23:25:52;4.10;;;2.30;;
79375;SDS011;68846;53.150;18.136;2023-07-31T23:28:20;5.20;;;2.60;;
79375;SDS011;68846;53.150;18.136;2023-07-31T23:30:49;4.90;;;3.10;;
79375;SDS011;68846;53.150;18.136;2023-07-31T23:33:17;5.20;;;2.70;;
79375;SDS011;68846;53.150;18.136;2023-07-31T23:35:45;4.50;;;2.90;;
79375;SDS011;68846;53.150;18.136;2023-07-31T23:38:12;5.00;;;3.00;;
79375;SDS011;68846;53.150;18.136;2023-07-31T23:40:40;5.00;;;2.60;;
79375;SDS011;68846;53.150;18.136;2023-07-31T23:43:08;4.40;;;2.60;;
